createdAt,value
2019-03-23T00:01:55.088Z,97.20
2019-03-23T00:03:57.293Z,96.90
2019-03-23T00:05:59.528Z,96.50
2019-03-23T00:08:01.779Z,96.90
2019-03-23T00:10:04.771Z,96.40
2019-03-23T00:12:06.985Z,96.40
2019-03-23T00:14:09.201Z,95.10
2019-03-23T00:16:11.425Z,93.80
2019-03-23T00:18:13.651Z,93.80
2019-03-23T00:20:15.872Z,93.00
2019-03-23T00:22:18.085Z,93.20
2019-03-23T00:24:20.309Z,93.80
2019-03-23T00:26:22.525Z,92.50
2019-03-23T00:28:24.972Z,92.20
2019-03-23T00:30:27.173Z,93.40
2019-03-23T00:32:29.380Z,95.70
2019-03-23T00:34:31.596Z,96.90
2019-03-23T00:36:41.229Z,98.20
2019-03-23T00:38:37.924Z,98.70
2019-03-23T00:40:40.128Z,99.60
2019-03-23T00:42:42.364Z,99.90
2019-03-23T00:44:44.658Z,99.90
2019-03-23T00:46:46.869Z,99.90
2019-03-23T00:48:49.401Z,98.10
2019-03-23T00:50:51.600Z,97.30
2019-03-23T00:52:54.102Z,98.30
2019-03-23T00:54:56.309Z,98.70
2019-03-23T00:56:58.552Z,98.20
2019-03-23T00:59:00.758Z,99.50
2019-03-23T01:01:02.987Z,99.90
2019-03-23T01:03:05.298Z,99.90
2019-03-23T01:05:07.635Z,99.90
2019-03-23T01:07:10.084Z,99.90
2019-03-23T01:09:12.312Z,99.90
2019-03-23T01:11:14.520Z,97.70
2019-03-23T01:13:16.724Z,91.80
2019-03-23T01:15:19.034Z,93.80
2019-03-23T01:17:21.255Z,92.20
2019-03-23T01:19:23.471Z,91.20
2019-03-23T01:21:25.680Z,93.10
2019-03-23T01:23:27.904Z,93.40
2019-03-23T01:25:30.124Z,94.10
2019-03-23T01:27:32.348Z,94.60
2019-03-23T01:29:34.807Z,94.60
2019-03-23T01:31:37.016Z,95.00
2019-03-23T01:33:39.235Z,95.90
2019-03-23T01:35:41.446Z,95.10
2019-03-23T01:37:43.653Z,96.60
2019-03-23T01:39:45.853Z,96.90
2019-03-23T01:41:48.069Z,97.40
2019-03-23T01:43:50.563Z,97.00
2019-03-23T01:45:52.880Z,94.90
2019-03-23T01:47:55.117Z,92.90
2019-03-23T01:49:57.319Z,92.90
2019-03-23T01:51:59.551Z,89.60
2019-03-23T01:54:01.773Z,91.50
2019-03-23T01:56:03.973Z,94.10
2019-03-23T01:58:06.207Z,94.90
2019-03-23T02:00:08.524Z,95.60
2019-03-23T02:02:10.732Z,96.30
2019-03-23T02:04:12.937Z,97.70
2019-03-23T02:06:15.519Z,99.90
2019-03-23T02:08:17.851Z,99.90
2019-03-23T02:10:20.062Z,99.90
2019-03-23T02:12:22.272Z,99.90
2019-03-23T02:14:24.501Z,99.90
2019-03-23T02:16:26.700Z,99.90
2019-03-23T02:18:28.923Z,99.90
2019-03-23T02:20:31.125Z,98.50
2019-03-23T02:22:33.364Z,96.90
2019-03-23T02:24:35.926Z,95.70
2019-03-23T02:26:38.144Z,98.80
2019-03-23T02:28:40.351Z,98.50
2019-03-23T02:30:42.560Z,96.10
2019-03-23T02:32:44.792Z,94.80
2019-03-23T02:34:47.013Z,94.60
2019-03-23T02:36:49.247Z,96.30
2019-03-23T02:38:51.789Z,96.70
2019-03-23T02:40:54.001Z,98.00
2019-03-23T02:42:56.786Z,99.30
2019-03-23T02:44:58.986Z,99.90
2019-03-23T02:47:01.208Z,99.90
2019-03-23T02:49:03.412Z,99.90
2019-03-23T02:51:05.622Z,99.90
2019-03-23T02:53:07.851Z,99.90
2019-03-23T02:55:10.586Z,99.90
2019-03-23T02:57:12.805Z,99.90
2019-03-23T02:59:15.019Z,99.90
2019-03-23T03:01:17.226Z,99.90
2019-03-23T03:03:19.444Z,99.90
2019-03-23T03:05:21.742Z,99.90
2019-03-23T03:07:23.967Z,98.60
2019-03-23T03:09:26.161Z,93.50
2019-03-23T03:11:28.601Z,96.50
2019-03-23T03:13:30.826Z,97.30
2019-03-23T03:15:33.039Z,97.70
2019-03-23T03:17:35.262Z,98.10
2019-03-23T03:19:37.462Z,99.90
2019-03-23T03:21:39.672Z,98.80
2019-03-23T03:23:41.878Z,99.90
2019-03-23T03:25:44.086Z,99.90
2019-03-23T03:27:46.301Z,99.90
2019-03-23T03:29:48.508Z,99.90
2019-03-23T03:31:50.725Z,99.90
2019-03-23T03:33:52.939Z,99.90
2019-03-23T03:35:55.150Z,99.90
2019-03-23T03:37:57.541Z,99.90
2019-03-23T03:39:59.886Z,99.90
2019-03-23T03:42:02.112Z,99.90
2019-03-23T03:44:04.316Z,99.90
2019-03-23T03:46:06.515Z,99.90
2019-03-23T03:48:08.735Z,99.90
2019-03-23T03:50:11.373Z,99.90
2019-03-23T03:52:13.605Z,99.90
2019-03-23T03:54:15.807Z,99.90
2019-03-23T03:56:18.014Z,99.90
2019-03-23T03:58:20.238Z,99.90
2019-03-23T04:00:22.446Z,99.90
2019-03-23T04:02:24.976Z,99.90
2019-03-23T04:04:27.180Z,99.90
2019-03-23T04:06:29.389Z,99.90
2019-03-23T04:08:31.611Z,99.90
2019-03-23T04:10:33.815Z,99.90
2019-03-23T04:12:36.129Z,99.90
2019-03-23T04:14:38.358Z,99.90
2019-03-23T04:16:40.889Z,99.90
2019-03-23T04:18:43.101Z,99.90
2019-03-23T04:20:45.315Z,99.90
2019-03-23T04:22:47.548Z,99.90
2019-03-23T04:24:50.108Z,99.90
2019-03-23T04:26:52.589Z,99.90
2019-03-23T04:28:54.803Z,99.90
2019-03-23T04:30:57.007Z,99.90
2019-03-23T04:32:59.229Z,99.90
2019-03-23T04:35:01.464Z,99.90
2019-03-23T04:37:03.686Z,99.90
2019-03-23T04:39:06.270Z,99.90
2019-03-23T04:41:08.471Z,99.90
2019-03-23T04:43:10.914Z,99.90
2019-03-23T04:45:13.368Z,99.90
2019-03-23T04:47:15.575Z,99.90
2019-03-23T04:49:17.772Z,99.90
2019-03-23T04:51:20.273Z,99.90
2019-03-23T04:53:22.478Z,99.90
2019-03-23T04:55:24.696Z,99.90
2019-03-23T04:57:26.925Z,99.90
2019-03-23T04:59:29.128Z,99.90
2019-03-23T05:01:31.332Z,99.90
2019-03-23T05:03:33.536Z,99.90
2019-03-23T05:05:35.768Z,99.90
2019-03-23T05:07:37.976Z,99.90
2019-03-23T05:09:40.181Z,99.90
2019-03-23T05:11:42.368Z,99.90
2019-03-23T05:13:44.580Z,99.90
2019-03-23T05:15:46.783Z,99.90
2019-03-23T05:17:48.997Z,99.90
2019-03-23T05:19:51.197Z,99.90
2019-03-23T05:21:53.404Z,99.90
2019-03-23T05:23:55.621Z,99.90
2019-03-23T05:25:57.825Z,99.90
2019-03-23T05:28:00.043Z,99.90
2019-03-23T05:30:02.439Z,99.90
2019-03-23T05:32:04.648Z,99.90
2019-03-23T05:34:06.862Z,99.90
2019-03-23T05:36:09.071Z,99.90
2019-03-23T05:38:11.282Z,99.90
2019-03-23T05:40:13.488Z,99.90
2019-03-23T05:42:15.690Z,99.90
2019-03-23T05:44:17.906Z,99.90
2019-03-23T05:46:20.105Z,99.90
2019-03-23T05:48:22.325Z,99.90
2019-03-23T05:50:24.540Z,99.90
2019-03-23T05:52:26.760Z,99.90
2019-03-23T05:54:28.961Z,99.90
2019-03-23T05:56:31.165Z,99.90
2019-03-23T05:58:33.389Z,99.90
2019-03-23T06:00:35.605Z,99.90
2019-03-23T06:02:37.800Z,99.90
2019-03-23T06:04:40.010Z,99.90
2019-03-23T06:06:42.221Z,99.90
2019-03-23T06:08:54.275Z,99.90
2019-03-23T06:10:48.857Z,99.90
2019-03-23T06:12:51.065Z,99.90
2019-03-23T06:14:53.269Z,99.90
2019-03-23T06:16:55.482Z,99.90
2019-03-23T06:18:57.697Z,99.90
2019-03-23T06:21:00.189Z,99.90
2019-03-23T06:23:02.404Z,99.90
2019-03-23T06:25:04.817Z,99.90
2019-03-23T06:27:07.013Z,99.90
2019-03-23T06:29:09.224Z,99.90
2019-03-23T06:31:11.552Z,99.90
2019-03-23T06:33:13.766Z,99.90
2019-03-23T06:35:16.398Z,99.90
2019-03-23T06:37:18.611Z,99.90
2019-03-23T06:39:20.830Z,99.90
2019-03-23T06:41:23.048Z,99.90
2019-03-23T06:43:25.265Z,99.90
2019-03-23T06:45:27.475Z,99.90
2019-03-23T06:47:29.696Z,99.90
2019-03-23T06:49:31.921Z,99.90
2019-03-23T06:51:34.139Z,99.90
2019-03-23T06:53:36.616Z,99.90
2019-03-23T06:55:39.120Z,99.90
2019-03-23T06:57:41.339Z,99.90
2019-03-23T06:59:43.563Z,99.90
2019-03-23T07:01:45.776Z,99.90
2019-03-23T07:03:47.994Z,99.90
2019-03-23T07:05:50.216Z,99.90
2019-03-23T07:07:52.419Z,99.90
2019-03-23T07:09:54.730Z,99.90
2019-03-23T07:11:56.940Z,99.90
2019-03-23T07:13:59.154Z,99.90
2019-03-23T07:16:01.369Z,99.90
2019-03-23T07:18:03.580Z,99.90
2019-03-23T07:20:07.148Z,99.90
2019-03-23T07:22:09.364Z,99.90
2019-03-23T07:24:11.568Z,99.90
2019-03-23T07:26:13.793Z,99.90
2019-03-23T07:28:16.038Z,99.90
2019-03-23T07:30:18.345Z,99.90
2019-03-23T07:32:20.558Z,99.90
2019-03-23T07:34:23.131Z,99.90
2019-03-23T07:36:25.329Z,99.90
2019-03-23T07:38:27.549Z,99.90
2019-03-23T07:40:29.775Z,99.90
2019-03-23T07:42:31.979Z,99.90
2019-03-23T07:44:34.190Z,99.90
2019-03-23T07:46:36.376Z,99.90
2019-03-23T07:48:38.589Z,99.90
2019-03-23T07:50:40.801Z,99.90
2019-03-23T07:52:42.992Z,99.90
2019-03-23T07:54:45.213Z,99.90
2019-03-23T07:56:47.415Z,99.90
2019-03-23T07:58:49.632Z,99.90
2019-03-23T08:00:51.837Z,99.90
2019-03-23T08:02:54.050Z,99.90
2019-03-23T08:04:56.316Z,99.90
2019-03-23T08:06:58.525Z,99.90
2019-03-23T08:09:00.746Z,99.90
2019-03-23T08:11:02.965Z,99.90
2019-03-23T08:13:05.174Z,99.90
2019-03-23T08:15:07.819Z,99.90
2019-03-23T08:17:10.040Z,99.90
2019-03-23T08:19:12.582Z,99.90
2019-03-23T08:21:15.122Z,99.90
2019-03-23T08:23:17.326Z,99.90
2019-03-23T08:25:19.524Z,99.90
2019-03-23T08:27:21.737Z,99.90
2019-03-23T08:29:23.963Z,99.90
2019-03-23T08:31:26.164Z,99.90
2019-03-23T08:33:28.374Z,99.90
2019-03-23T08:35:30.585Z,99.90
2019-03-23T08:41:11.158Z,99.90
2019-03-23T08:43:13.365Z,99.90
2019-03-23T08:45:15.585Z,99.90
2019-03-23T08:47:17.802Z,99.90
2019-03-23T08:49:20.113Z,99.90
2019-03-23T08:51:22.598Z,99.90
2019-03-23T08:53:24.833Z,99.90
2019-03-23T08:55:27.129Z,99.90
2019-03-23T08:57:29.390Z,99.90
2019-03-23T08:59:31.610Z,99.90
2019-03-23T09:01:33.826Z,99.90
2019-03-23T09:03:36.046Z,99.90
2019-03-23T09:05:38.562Z,99.90
2019-03-23T09:07:40.765Z,99.90
2019-03-23T09:09:42.984Z,99.90
2019-03-23T09:11:45.462Z,99.90
2019-03-23T09:13:47.661Z,99.90
2019-03-23T09:15:49.978Z,99.90
2019-03-23T09:17:52.183Z,99.90
2019-03-23T09:19:54.481Z,99.90
2019-03-23T09:21:56.693Z,99.90
2019-03-23T09:23:59.158Z,99.90
2019-03-23T09:26:01.382Z,99.90
2019-03-23T09:28:03.588Z,99.90
2019-03-23T09:30:07.562Z,99.90
2019-03-23T09:32:09.761Z,99.90
2019-03-23T09:34:12.250Z,99.90
2019-03-23T09:36:14.466Z,99.90
2019-03-23T09:38:16.663Z,99.90
2019-03-23T09:40:19.673Z,99.90
2019-03-23T09:42:21.877Z,99.90
2019-03-23T09:44:24.182Z,99.90
2019-03-23T09:46:26.399Z,99.90
2019-03-23T09:48:28.605Z,99.90
2019-03-23T09:50:30.827Z,99.90
2019-03-23T09:52:33.033Z,99.90
2019-03-23T09:54:35.233Z,99.90
2019-03-23T09:56:37.726Z,99.90
2019-03-23T09:58:39.942Z,99.90
2019-03-23T10:00:42.166Z,99.90
2019-03-23T10:02:44.381Z,99.90
2019-03-23T10:04:46.689Z,99.90
2019-03-23T10:06:49.012Z,99.90
2019-03-23T10:08:51.217Z,99.90
2019-03-23T10:10:53.437Z,99.90
2019-03-23T10:12:55.637Z,99.90
2019-03-23T10:14:57.841Z,99.90
2019-03-23T10:17:00.041Z,99.90
2019-03-23T10:19:02.250Z,99.90
2019-03-23T10:21:04.462Z,99.90
2019-03-23T10:23:06.669Z,99.90
2019-03-23T10:25:08.880Z,99.90
2019-03-23T10:27:11.100Z,99.90
2019-03-23T10:29:13.706Z,99.90
2019-03-23T10:31:16.223Z,99.90
2019-03-23T10:33:18.425Z,99.90
2019-03-23T10:35:20.647Z,99.90
2019-03-23T10:37:22.854Z,99.90
2019-03-23T10:39:25.058Z,99.90
2019-03-23T10:41:27.276Z,99.90
2019-03-23T10:43:29.794Z,99.90
2019-03-23T10:45:32.016Z,99.90
2019-03-23T10:47:34.349Z,99.90
2019-03-23T10:49:36.726Z,99.90
2019-03-23T10:51:39.309Z,99.90
2019-03-23T10:53:41.573Z,99.90
2019-03-23T10:55:44.055Z,99.90
2019-03-23T10:57:46.273Z,99.90
2019-03-23T10:59:48.486Z,99.90
2019-03-23T11:01:50.733Z,99.90
2019-03-23T11:03:52.938Z,99.90
2019-03-23T11:05:55.154Z,99.90
2019-03-23T11:07:57.363Z,99.90
2019-03-23T11:09:59.562Z,99.90
2019-03-23T11:12:01.784Z,99.90
2019-03-23T11:14:03.994Z,99.90
2019-03-23T11:16:06.217Z,99.90
2019-03-23T11:18:08.416Z,99.90
2019-03-23T11:20:10.657Z,99.90
2019-03-23T11:22:12.873Z,99.90
2019-03-23T11:24:15.073Z,99.90
2019-03-23T11:26:17.288Z,99.90
2019-03-23T11:28:19.481Z,99.90
2019-03-23T11:30:21.682Z,98.90
2019-03-23T11:32:23.903Z,99.90
2019-03-23T11:34:26.390Z,99.90
2019-03-23T11:36:28.606Z,99.80
2019-03-23T11:38:30.805Z,99.90
2019-03-23T11:40:33.013Z,99.80
2019-03-23T11:42:35.237Z,99.90
2019-03-23T11:44:37.449Z,99.90
2019-03-23T11:46:39.665Z,99.90
2019-03-23T11:48:41.891Z,97.30
2019-03-23T11:50:44.183Z,97.10
2019-03-23T11:52:47.174Z,99.90
2019-03-23T11:54:49.501Z,99.90
2019-03-23T11:56:51.722Z,99.90
2019-03-23T11:58:54.127Z,98.20
2019-03-23T12:00:56.545Z,98.60
2019-03-23T12:02:58.761Z,99.60
2019-03-23T12:05:00.970Z,99.90
2019-03-23T12:07:03.198Z,99.90
2019-03-23T12:09:06.815Z,99.90
2019-03-23T12:11:09.022Z,98.70
2019-03-23T12:13:11.239Z,99.70
2019-03-23T12:15:13.463Z,99.90
2019-03-23T12:17:15.677Z,99.90
2019-03-23T12:19:17.885Z,99.90
2019-03-23T12:21:20.090Z,98.30
2019-03-23T12:23:22.309Z,98.00
2019-03-23T12:25:24.513Z,96.20
2019-03-23T12:27:26.738Z,97.80
2019-03-23T12:29:28.954Z,95.40
2019-03-23T12:31:31.434Z,92.10
2019-03-23T12:33:33.644Z,84.90
2019-03-23T12:35:35.851Z,84.70
2019-03-23T12:37:38.066Z,87.60
2019-03-23T12:39:40.304Z,68.20
2019-03-23T12:41:42.598Z,80.10
2019-03-23T12:43:44.801Z,58.60
2019-03-23T12:45:47.005Z,47.20
2019-03-23T12:47:49.222Z,55.70
2019-03-23T12:49:51.422Z,44.20
2019-03-23T12:51:53.643Z,33.10
2019-03-23T12:53:55.841Z,28.60
2019-03-23T12:55:58.049Z,35.70
2019-03-23T12:58:00.270Z,30.50
2019-03-23T13:00:02.857Z,34.40
2019-03-23T13:02:05.077Z,28.30
2019-03-23T13:04:07.590Z,29.10
2019-03-23T13:06:09.794Z,32.10
2019-03-23T13:08:12.015Z,34.10
2019-03-23T13:10:14.243Z,38.80
2019-03-23T13:12:16.462Z,42.70
2019-03-23T13:14:18.669Z,40.10
2019-03-23T13:16:20.873Z,43.60
2019-03-23T13:18:27.181Z,40.80
2019-03-23T13:20:27.321Z,39.30
2019-03-23T13:22:29.614Z,45.50
2019-03-23T13:24:31.826Z,45.90
2019-03-23T13:26:34.025Z,44.30
2019-03-23T13:28:36.243Z,54.10
2019-03-23T13:30:38.453Z,53.80
2019-03-23T13:32:40.678Z,51.00
2019-03-23T13:34:43.210Z,47.90
2019-03-23T13:36:45.702Z,53.70
2019-03-23T13:38:48.173Z,51.10
2019-03-23T13:40:50.381Z,52.70
2019-03-23T13:42:52.602Z,62.90
2019-03-23T13:44:54.809Z,51.00
2019-03-23T13:46:57.021Z,53.60
2019-03-23T13:48:59.494Z,57.50
2019-03-23T13:51:01.697Z,59.60
2019-03-23T13:53:03.934Z,54.70
2019-03-23T13:55:06.375Z,57.20
2019-03-23T13:57:08.867Z,53.80
2019-03-23T13:59:11.080Z,72.40
2019-03-23T14:01:13.531Z,72.80
2019-03-23T14:03:15.757Z,71.70
2019-03-23T14:05:17.948Z,78.80
2019-03-23T14:07:20.157Z,84.00
2019-03-23T14:09:22.386Z,86.50
2019-03-23T14:11:24.626Z,85.50
2019-03-23T14:13:27.879Z,85.60
2019-03-23T14:15:30.324Z,87.80
2019-03-23T14:17:32.537Z,88.40
2019-03-23T14:19:34.969Z,83.50
2019-03-23T14:21:37.585Z,88.60
2019-03-23T14:23:39.809Z,83.50
2019-03-23T14:25:42.257Z,89.00
2019-03-23T14:27:44.466Z,87.20
2019-03-23T14:29:46.695Z,88.10
2019-03-23T14:31:48.900Z,86.60
2019-03-23T14:33:51.118Z,86.40
2019-03-23T14:35:53.665Z,85.40
2019-03-23T14:37:55.878Z,87.10
2019-03-23T14:39:58.437Z,86.90
2019-03-23T14:42:04.819Z,84.40
2019-03-23T14:44:04.761Z,85.10
2019-03-23T14:46:06.974Z,88.30
2019-03-23T14:48:09.181Z,91.40
2019-03-23T14:50:11.401Z,93.40
2019-03-23T14:52:13.610Z,93.40
2019-03-23T14:54:15.829Z,92.00
2019-03-23T14:56:18.033Z,90.80
2019-03-23T14:58:20.273Z,92.80
2019-03-23T15:00:30.120Z,92.00
2019-03-23T15:02:32.330Z,93.20
2019-03-23T15:04:34.546Z,92.50
2019-03-23T15:06:36.750Z,92.80
2019-03-23T15:08:38.965Z,91.70
2019-03-23T15:10:41.170Z,93.10
2019-03-23T15:12:43.381Z,93.40
2019-03-23T15:14:45.942Z,94.60
2019-03-23T15:16:48.150Z,93.70
2019-03-23T15:18:50.367Z,93.90
2019-03-23T15:20:52.569Z,94.40
2019-03-23T15:22:55.022Z,94.60
2019-03-23T15:24:57.237Z,94.60
2019-03-23T15:26:59.445Z,95.60
2019-03-23T15:29:01.661Z,95.90
2019-03-23T15:31:03.866Z,96.60
2019-03-23T15:33:06.078Z,96.60
2019-03-23T15:35:08.297Z,96.20
2019-03-23T15:37:10.503Z,96.30
2019-03-23T15:39:13.038Z,96.80
2019-03-23T15:41:15.238Z,98.20
2019-03-23T15:43:17.441Z,98.90
2019-03-23T15:45:19.665Z,98.90
2019-03-23T15:47:22.197Z,99.30
2019-03-23T15:49:24.422Z,99.80
2019-03-23T15:51:26.621Z,99.90
2019-03-23T15:53:28.817Z,99.90
2019-03-23T15:55:31.038Z,99.90
2019-03-23T15:57:33.285Z,99.90
2019-03-23T15:59:35.533Z,99.90
2019-03-23T16:01:37.746Z,99.90
2019-03-23T16:03:39.948Z,99.90
2019-03-23T16:05:42.169Z,99.90
2019-03-23T16:07:44.378Z,99.90
2019-03-23T16:09:46.597Z,99.90
2019-03-23T16:11:48.906Z,99.90
2019-03-23T16:13:51.109Z,99.90
2019-03-23T16:15:53.321Z,99.90
2019-03-23T16:17:55.781Z,99.90
2019-03-23T16:19:58.198Z,99.90
2019-03-23T16:22:00.468Z,99.90
2019-03-23T16:24:02.778Z,99.90
2019-03-23T16:26:05.002Z,99.90
2019-03-23T16:28:07.209Z,99.90
2019-03-23T16:30:10.852Z,99.90
2019-03-23T16:32:13.150Z,99.90
2019-03-23T16:34:15.353Z,99.90
2019-03-23T16:36:17.568Z,99.90
2019-03-23T16:38:19.777Z,99.90
2019-03-23T16:40:21.994Z,99.90
2019-03-23T16:42:24.203Z,99.90
2019-03-23T16:44:26.405Z,99.90
2019-03-23T16:46:28.621Z,99.90
2019-03-23T16:48:30.825Z,99.90
2019-03-23T16:50:33.374Z,99.90
2019-03-23T16:52:36.542Z,99.90
2019-03-23T16:54:38.748Z,99.90
2019-03-23T16:56:40.970Z,99.90
2019-03-23T16:58:43.220Z,99.90
2019-03-23T17:00:45.507Z,99.90
2019-03-23T17:02:47.694Z,99.90
2019-03-23T17:04:49.958Z,99.90
2019-03-23T17:06:52.170Z,99.90
2019-03-23T17:08:54.378Z,99.90
2019-03-23T17:10:56.596Z,99.90
2019-03-23T17:12:58.793Z,99.90
2019-03-23T17:15:01.013Z,99.90
2019-03-23T17:17:03.217Z,99.90
2019-03-23T17:19:05.721Z,99.90
2019-03-23T17:21:07.946Z,99.90
2019-03-23T17:23:10.149Z,99.90
2019-03-23T17:25:12.374Z,99.90
2019-03-23T17:27:14.593Z,99.90
2019-03-23T17:29:16.796Z,99.90
2019-03-23T17:31:19.010Z,99.90
2019-03-23T17:33:21.463Z,99.90
2019-03-23T17:35:23.666Z,99.90
2019-03-23T17:37:25.869Z,99.90
2019-03-23T17:39:28.088Z,99.90
2019-03-23T17:41:30.503Z,99.90
2019-03-23T17:43:32.770Z,99.90
2019-03-23T17:45:35.006Z,99.90
2019-03-23T17:47:37.290Z,99.90
2019-03-23T17:49:39.497Z,99.90
2019-03-23T17:51:42.025Z,99.90
2019-03-23T17:53:44.577Z,99.90
2019-03-23T17:55:46.801Z,99.90
2019-03-23T17:57:49.025Z,99.90
2019-03-23T17:59:51.241Z,99.90
2019-03-23T18:01:53.486Z,99.90
2019-03-23T18:03:55.710Z,99.90
2019-03-23T18:05:58.453Z,99.90
2019-03-23T18:08:01.028Z,99.90
2019-03-23T18:10:04.110Z,99.90
2019-03-23T18:12:06.329Z,99.90
2019-03-23T18:14:08.530Z,99.90
2019-03-23T18:16:10.994Z,99.90
2019-03-23T18:18:13.438Z,99.90
2019-03-23T18:20:15.670Z,99.90
2019-03-23T18:22:17.901Z,99.90
2019-03-23T18:24:20.115Z,99.90
2019-03-23T18:26:22.333Z,99.90
2019-03-23T18:28:24.545Z,99.90
2019-03-23T18:30:37.868Z,99.90
2019-03-23T18:32:40.092Z,99.90
2019-03-23T18:34:42.304Z,99.90
2019-03-23T18:36:44.838Z,99.90
2019-03-23T18:38:47.049Z,99.90
2019-03-23T18:40:49.271Z,99.90
2019-03-23T18:42:51.473Z,99.90
2019-03-23T18:44:53.694Z,99.90
2019-03-23T18:46:55.913Z,99.90
2019-03-23T18:48:58.121Z,99.90
2019-03-23T18:51:00.346Z,99.90
2019-03-23T18:53:02.583Z,99.90
2019-03-23T18:55:05.232Z,99.90
2019-03-23T18:57:07.454Z,99.90
2019-03-23T18:59:09.674Z,99.90
2019-03-23T19:01:11.893Z,99.90
2019-03-23T19:03:14.101Z,99.90
2019-03-23T19:05:16.671Z,99.90
2019-03-23T19:07:18.900Z,99.90
2019-03-23T19:09:21.114Z,99.90
2019-03-23T19:11:23.325Z,99.90
2019-03-23T19:13:25.830Z,99.90
2019-03-23T19:15:28.048Z,99.90
2019-03-23T19:17:30.269Z,99.90
2019-03-23T19:19:32.838Z,99.90
2019-03-23T19:21:35.066Z,99.90
2019-03-23T19:23:37.369Z,99.90
2019-03-23T19:25:39.573Z,99.90
2019-03-23T19:27:41.807Z,99.90
2019-03-23T19:29:44.013Z,99.90
2019-03-23T19:31:46.240Z,99.90
2019-03-23T19:33:48.453Z,99.90
2019-03-23T19:35:50.665Z,99.90
2019-03-23T19:37:52.882Z,99.90
2019-03-23T19:39:55.092Z,99.90
2019-03-23T19:41:57.317Z,99.90
2019-03-23T19:43:59.530Z,99.90
2019-03-23T19:46:01.749Z,99.90
2019-03-23T19:48:03.985Z,99.90
2019-03-23T19:50:06.462Z,99.90
2019-03-23T19:52:08.681Z,99.90
2019-03-23T19:54:10.903Z,99.90
2019-03-23T19:56:13.114Z,99.90
2019-03-23T19:58:15.361Z,99.90
2019-03-23T20:00:17.565Z,99.90
2019-03-23T20:02:19.790Z,99.90
2019-03-23T20:04:22.096Z,99.90
2019-03-23T20:06:24.301Z,99.90
2019-03-23T20:08:26.825Z,99.90
2019-03-23T20:10:29.282Z,99.90
2019-03-23T20:12:31.510Z,99.90
2019-03-23T20:14:33.718Z,99.90
2019-03-23T20:16:35.928Z,99.90
2019-03-23T20:18:38.153Z,99.90
2019-03-23T20:20:40.379Z,99.90
2019-03-23T20:22:42.622Z,99.90
2019-03-23T20:24:44.833Z,99.90
2019-03-23T20:26:47.058Z,99.90
2019-03-23T20:28:49.277Z,99.90
2019-03-23T20:30:51.491Z,99.90
2019-03-23T20:32:53.966Z,99.90
2019-03-23T20:34:56.190Z,99.90
2019-03-23T20:36:59.053Z,99.90
2019-03-23T20:39:01.304Z,99.90
2019-03-23T20:41:04.128Z,99.90
2019-03-23T20:43:06.346Z,99.90
2019-03-23T20:45:09.472Z,99.90
2019-03-23T20:47:11.706Z,99.90
2019-03-23T20:49:13.934Z,99.90
2019-03-23T20:51:16.454Z,99.90
2019-03-23T20:53:18.680Z,99.90
2019-03-23T20:55:25.730Z,99.90
2019-03-23T20:57:36.879Z,99.90
2019-03-23T20:59:32.093Z,99.90
2019-03-23T21:01:34.314Z,99.90
2019-03-23T21:03:36.533Z,99.90
2019-03-23T21:05:39.010Z,99.90
2019-03-23T21:07:41.301Z,99.90
2019-03-23T21:09:43.505Z,99.90
2019-03-23T21:11:45.743Z,99.90
2019-03-23T21:13:48.289Z,99.90
2019-03-23T21:15:51.383Z,99.90
2019-03-23T21:17:53.617Z,99.90
2019-03-23T21:19:55.817Z,99.80
2019-03-23T21:21:58.030Z,99.30
2019-03-23T21:24:00.259Z,99.70
2019-03-23T21:26:02.465Z,99.40
2019-03-23T21:28:04.690Z,99.40
2019-03-23T21:30:10.725Z,99.90
2019-03-23T21:32:13.021Z,99.90
2019-03-23T21:34:15.242Z,99.90
2019-03-23T21:36:17.441Z,99.70
2019-03-23T21:38:19.657Z,99.50
2019-03-23T21:40:21.864Z,99.90
2019-03-23T21:42:24.067Z,99.90
2019-03-23T21:44:30.918Z,99.90
2019-03-23T21:46:30.465Z,99.90
2019-03-23T21:48:33.009Z,99.90
2019-03-23T21:50:35.229Z,99.90
2019-03-23T21:52:37.445Z,99.90
2019-03-23T21:54:39.769Z,99.90
2019-03-23T21:56:41.998Z,99.90
2019-03-23T21:58:44.225Z,99.90
2019-03-23T22:00:46.453Z,99.90
2019-03-23T22:02:48.669Z,99.90
2019-03-23T22:04:51.178Z,99.90
2019-03-23T22:06:53.715Z,99.90
2019-03-23T22:08:55.954Z,99.90
2019-03-23T22:10:58.162Z,99.90
2019-03-23T22:13:00.401Z,99.90
2019-03-23T22:15:02.957Z,99.90
2019-03-23T22:17:05.977Z,99.90
2019-03-23T22:19:08.313Z,99.90
2019-03-23T22:21:10.534Z,99.50
2019-03-23T22:23:12.794Z,99.60
2019-03-23T22:25:15.006Z,99.80
2019-03-23T22:27:19.059Z,98.80
2019-03-23T22:29:21.349Z,97.60
2019-03-23T22:31:23.574Z,98.60
2019-03-23T22:33:25.794Z,99.20
2019-03-23T22:35:28.309Z,99.80
2019-03-23T22:37:30.523Z,99.70
2019-03-23T22:39:33.087Z,99.90
2019-03-23T22:41:35.297Z,99.90
2019-03-23T22:43:37.517Z,99.90
2019-03-23T22:45:39.738Z,99.90
2019-03-23T22:47:41.982Z,99.90
2019-03-23T22:49:44.206Z,99.90
2019-03-23T22:51:46.418Z,99.90
2019-03-23T22:53:48.817Z,99.90
2019-03-23T22:55:51.057Z,99.90
2019-03-23T22:57:55.549Z,99.90
2019-03-23T22:59:58.114Z,99.90
2019-03-23T23:02:00.395Z,99.90
2019-03-23T23:04:02.994Z,99.90
2019-03-23T23:06:05.209Z,99.90
2019-03-23T23:08:07.650Z,99.90
2019-03-23T23:10:09.878Z,99.90
2019-03-23T23:12:12.081Z,99.90
2019-03-23T23:14:14.305Z,99.90
2019-03-23T23:16:16.513Z,99.90
2019-03-23T23:18:18.727Z,99.90
2019-03-23T23:20:20.949Z,99.90
2019-03-23T23:22:23.498Z,99.90
2019-03-23T23:24:25.730Z,99.90
2019-03-23T23:26:27.941Z,99.90
2019-03-23T23:28:30.157Z,99.90
2019-03-23T23:30:32.376Z,99.90
2019-03-23T23:32:34.594Z,99.90
2019-03-23T23:34:37.093Z,99.90
2019-03-23T23:36:39.301Z,99.90
2019-03-23T23:38:41.525Z,99.90
2019-03-23T23:40:43.997Z,99.90
2019-03-23T23:42:46.213Z,99.90
2019-03-23T23:44:48.437Z,99.90
2019-03-23T23:46:50.664Z,99.90
2019-03-23T23:48:53.165Z,99.90
2019-03-23T23:50:55.385Z,99.90
2019-03-23T23:52:57.611Z,99.90
2019-03-23T23:54:59.836Z,99.90
2019-03-23T23:57:02.049Z,99.90
2019-03-23T23:59:04.285Z,99.90
